createdAt,value
2023-04-10T14:22:46.448Z,99758.53
2023-04-10T14:23:25.323Z,99761.97
2023-04-10T14:24:04.477Z,99763.50
2023-04-10T14:24:43.966Z,99770.47
2023-04-10T14:25:23.832Z,99752.75
2023-04-10T14:26:01.409Z,99748.81
2023-04-10T14:26:39.636Z,99762.13
2023-04-10T14:27:19.135Z,99757.50
2023-04-10T14:27:58.100Z,99757.22
2023-04-10T14:28:39.010Z,99756.00
2023-04-10T14:29:22.595Z,99758.38
2023-04-10T14:30:05.998Z,99756.44
2023-04-10T14:30:46.426Z,99754.19
2023-04-10T14:31:29.445Z,99744.13
2023-04-10T14:32:09.598Z,99754.38
2023-04-10T14:32:49.285Z,99746.13
2023-04-10T14:33:30.235Z,99747.53
2023-04-10T14:34:11.581Z,99744.16
2023-04-10T14:34:51.110Z,99740.13
2023-04-10T14:35:28.444Z,99742.50
2023-04-10T14:36:05.560Z,99736.91
2023-04-10T14:36:42.956Z,99738.56
2023-04-10T14:37:21.668Z,99732.69
2023-04-10T14:37:59.028Z,99735.50
2023-04-10T14:38:37.035Z,99732.28
2023-04-10T14:39:15.273Z,99732.69
2023-04-10T14:39:52.509Z,99725.69
2023-04-10T14:40:29.335Z,99718.84
2023-04-10T14:41:06.738Z,99722.59
2023-04-10T14:41:44.930Z,99719.66
2023-04-10T14:42:22.674Z,99716.72
2023-04-10T14:43:02.588Z,99713.38
2023-04-10T14:43:40.476Z,99719.13
2023-04-10T14:44:19.463Z,99714.06
2023-04-10T14:44:57.485Z,99717.28
2023-04-10T14:45:35.933Z,99714.34
2023-04-10T14:46:14.599Z,99711.13
2023-04-10T14:46:52.856Z,99703.56
2023-04-10T14:47:31.048Z,99694.63
2023-04-10T14:48:08.669Z,99698.13
2023-04-10T14:48:47.286Z,99696.00
2023-04-10T14:49:26.765Z,99686.22
2023-04-10T14:50:03.722Z,99684.13
2023-04-10T14:50:41.309Z,99693.50
2023-04-10T14:51:20.697Z,99686.91
2023-04-10T14:51:59.355Z,99669.13
2023-04-10T14:52:37.840Z,99666.47
2023-04-10T14:53:17.070Z,99675.13
2023-04-10T14:53:55.877Z,99673.34
2023-04-10T14:54:34.624Z,99660.47
2023-04-10T14:55:11.506Z,99669.28
2023-04-10T14:55:48.827Z,99659.34
2023-04-10T14:56:27.612Z,99666.34
2023-04-10T14:57:06.208Z,99664.50
2023-04-10T14:57:44.909Z,99665.38
2023-04-10T14:58:25.074Z,99660.88
2023-04-10T14:59:03.585Z,99666.09
2023-04-10T14:59:41.781Z,99652.50
2023-04-10T15:00:20.082Z,99663.16
2023-04-10T15:00:57.770Z,99669.03
2023-04-10T15:01:36.744Z,99662.59
2023-04-10T15:02:15.118Z,99663.56
2023-04-10T15:02:54.845Z,99668.34
2023-04-10T15:03:33.366Z,99669.72
2023-04-10T15:04:12.651Z,99668.03
2023-04-10T15:04:52.332Z,99663.25
2023-04-10T15:05:30.826Z,99676.00
2023-04-10T15:06:08.811Z,99664.22
2023-04-10T15:06:48.140Z,99657.09
2023-04-10T15:07:26.845Z,99670.41
2023-04-10T15:08:04.722Z,99658.91
2023-04-10T15:08:42.446Z,99668.84
2023-04-10T15:09:21.447Z,99658.22
2023-04-10T15:10:01.746Z,99663.25
2023-04-10T15:10:40.464Z,99658.22
2023-04-10T15:11:19.138Z,99661.56
2023-04-10T15:11:57.953Z,99658.22
2023-04-10T15:12:36.013Z,99651.19
2023-04-10T15:13:14.402Z,99666.06
2023-04-10T15:13:53.392Z,99659.63
2023-04-10T15:14:33.194Z,99655.81
2023-04-10T15:15:11.939Z,99654.88
2023-04-10T15:15:50.639Z,99664.94
2023-04-10T15:16:28.005Z,99657.94
2023-04-10T15:17:06.854Z,99657.94
2023-04-10T15:17:46.079Z,99658.22
2023-04-10T15:18:24.249Z,99656.25
2023-04-10T15:19:01.712Z,99653.59
2023-04-10T15:19:39.883Z,99661.56
2023-04-10T15:20:18.478Z,99656.25
2023-04-10T15:20:57.585Z,99655.41
2023-04-10T15:21:36.178Z,99662.16
2023-04-10T15:22:16.575Z,99659.91
2023-04-10T15:22:51.005Z,99660.88
2023-04-10T15:23:27.174Z,99651.69
2023-04-10T15:24:06.465Z,99656.00
2023-04-10T15:24:50.398Z,99655.16
2023-04-10T15:25:28.129Z,99658.78
2023-04-10T15:26:05.521Z,99662.47
2023-04-10T15:26:46.785Z,99658.78
2023-04-10T15:27:25.062Z,99659.94
2023-04-10T15:28:05.001Z,99662.31
2023-04-10T15:28:43.677Z,99668.34
2023-04-10T15:29:22.878Z,99657.81
2023-04-10T15:30:03.208Z,99656.72
2023-04-10T15:30:42.535Z,99659.94
2023-04-10T15:31:20.073Z,99658.25
2023-04-10T15:31:58.554Z,99660.75
2023-04-10T15:32:37.988Z,99662.44
2023-04-10T15:33:15.999Z,99661.44
2023-04-10T15:33:55.147Z,99661.31
2023-04-10T15:34:34.076Z,99661.31
2023-04-10T15:35:12.943Z,99664.13
2023-04-10T15:35:53.056Z,99659.66
2023-04-10T15:36:31.129Z,99643.53
2023-04-10T15:37:08.749Z,99657.13
2023-04-10T15:37:47.214Z,99648.28
2023-04-10T15:38:25.904Z,99642.69
2023-04-10T15:39:04.933Z,99656.84
2023-04-10T15:39:43.622Z,99638.34
2023-04-10T15:40:20.994Z,99640.03
2023-04-10T15:41:00.109Z,99641.72
2023-04-10T15:41:39.186Z,99639.88
2023-04-10T15:42:17.711Z,99643.69
2023-04-10T15:42:54.719Z,99645.63
2023-04-10T15:43:33.563Z,99659.06
2023-04-10T15:44:12.324Z,99651.81
2023-04-10T15:44:52.692Z,99654.88
2023-04-10T15:45:31.070Z,99652.63
2023-04-10T15:46:08.914Z,99651.81
2023-04-10T15:46:48.779Z,99646.63
2023-04-10T15:47:27.593Z,99652.09
2023-04-10T15:48:06.222Z,99639.75
2023-04-10T15:48:45.157Z,99644.38
2023-04-10T15:49:36.060Z,99643.56
2023-04-10T15:50:15.043Z,99643.41
2023-04-10T15:50:53.564Z,99640.75
2023-04-10T15:51:31.129Z,99643.69
2023-04-10T15:52:10.909Z,99639.34
2023-04-10T15:52:48.653Z,99643.41
2023-04-10T15:53:28.282Z,99641.72
2023-04-10T15:54:05.880Z,99647.03
2023-04-10T15:54:44.195Z,99638.91
2023-04-10T15:55:24.111Z,99635.28
2023-04-10T15:56:03.200Z,99641.72
2023-04-10T15:56:41.042Z,99634.56
2023-04-10T15:57:20.898Z,99654.34
2023-04-10T15:58:02.232Z,99647.88
2023-04-10T15:58:41.630Z,99640.16
2023-04-10T15:59:18.890Z,99639.06
2023-04-10T15:59:58.979Z,99634.69
2023-04-10T16:00:42.539Z,99634.44
2023-04-10T16:01:21.314Z,99633.88
2023-04-10T16:02:00.442Z,99636.69
2023-04-10T16:02:39.201Z,99636.69
2023-04-10T16:03:18.338Z,99627.72
2023-04-10T16:03:57.505Z,99632.19
2023-04-10T16:04:36.279Z,99631.50
2023-04-10T16:05:14.621Z,99634.16
2023-04-10T16:05:53.171Z,99637.50
2023-04-10T16:06:31.249Z,99626.72
2023-04-10T16:07:08.754Z,99637.22
2023-04-10T16:07:47.907Z,99634.69
2023-04-10T16:08:26.630Z,99622.41
2023-04-10T16:09:18.356Z,99620.56
2023-04-10T16:10:02.607Z,99627.72
2023-04-10T16:10:41.848Z,99618.88
2023-04-10T16:11:20.692Z,99617.75
2023-04-10T16:11:59.878Z,99614.28
2023-04-10T16:12:39.270Z,99633.88
2023-04-10T16:13:18.609Z,99617.06
2023-04-10T16:13:57.957Z,99618.59
2023-04-10T16:14:36.473Z,99612.72
2023-04-10T16:15:14.026Z,99607.41
2023-04-10T16:15:55.100Z,99610.06
2023-04-10T16:16:33.820Z,99617.34
2023-04-10T16:17:11.636Z,99614.69
2023-04-10T16:17:51.195Z,99621.53
2023-04-10T16:18:30.926Z,99611.03
2023-04-10T16:19:09.385Z,99616.94
2023-04-10T16:19:48.471Z,99610.91
2023-04-10T16:20:26.024Z,99608.38
2023-04-10T16:21:05.050Z,99611.91
2023-04-10T16:21:43.763Z,99604.75
2023-04-10T16:22:23.564Z,99605.56
2023-04-10T16:23:01.002Z,99599.56
2023-04-10T16:23:39.208Z,99607.53
2023-04-10T16:24:19.400Z,99599.84
2023-04-10T16:25:00.476Z,99602.22
2023-04-10T16:25:39.212Z,99594.09
2023-04-10T16:26:16.734Z,99599.41
2023-04-10T16:26:55.600Z,99594.09
2023-04-10T16:27:33.321Z,99590.47
2023-04-10T16:28:12.746Z,99588.78
2023-04-10T16:28:51.725Z,99589.59
2023-04-10T16:29:30.539Z,99587.94
2023-04-10T16:30:09.069Z,99589.75
2023-04-10T16:30:48.086Z,99592.25
2023-04-10T16:31:27.185Z,99595.78
2023-04-10T16:32:04.852Z,99586.25
2023-04-10T16:32:43.409Z,99581.63
2023-04-10T16:33:22.144Z,99586.81
2023-04-10T16:34:01.905Z,99591.44
2023-04-10T16:34:39.470Z,99581.47
2023-04-10T16:35:18.668Z,99591.72
2023-04-10T16:35:58.911Z,99577.16
2023-04-10T16:36:37.358Z,99574.78
2023-04-10T16:37:15.909Z,99594.38
2023-04-10T16:37:55.580Z,99589.19
2023-04-10T16:38:34.878Z,99586.25
2023-04-10T16:39:12.255Z,99587.09
2023-04-10T16:39:51.536Z,99582.06
2023-04-10T16:40:30.242Z,99581.22
2023-04-10T16:41:10.061Z,99582.91
2023-04-10T16:41:49.757Z,99578.41
2023-04-10T16:42:29.160Z,99569.59
2023-04-10T16:43:09.468Z,99580.09
2023-04-10T16:43:50.088Z,99567.47
2023-04-10T16:44:30.120Z,99572.81
2023-04-10T16:45:11.814Z,99566.50
2023-04-10T16:45:57.948Z,99559.50
2023-04-10T16:46:37.239Z,99560.47
2023-04-10T16:47:16.797Z,99565.78
2023-04-10T16:47:56.361Z,99582.63
2023-04-10T16:48:36.371Z,99575.47
2023-04-10T16:49:15.137Z,99560.47
2023-04-10T16:49:54.304Z,99563.00
2023-04-10T16:50:33.416Z,99565.78
2023-04-10T16:51:11.105Z,99571.13
2023-04-10T16:51:51.229Z,99573.78
2023-04-10T16:52:30.574Z,99566.50
2023-04-10T16:53:09.828Z,99569.19
2023-04-10T16:53:48.719Z,99564.81
2023-04-10T16:54:27.933Z,99575.47
2023-04-10T16:55:06.664Z,99568.19
2023-04-10T16:55:45.422Z,99567.47
2023-04-10T16:56:26.369Z,99560.47
2023-04-10T16:57:04.901Z,99568.31
2023-04-10T16:57:44.407Z,99554.19
2023-04-10T16:58:22.066Z,99558.53
2023-04-10T16:59:02.394Z,99567.19
2023-04-10T16:59:40.786Z,99559.50
2023-04-10T17:00:19.856Z,99555.00
2023-04-10T17:00:59.363Z,99549.81
2023-04-10T17:01:39.335Z,99554.19
2023-04-10T17:02:18.034Z,99551.50
2023-04-10T17:02:57.252Z,99553.22
2023-04-10T17:03:37.005Z,99544.38
2023-04-10T17:04:15.989Z,99557.53
2023-04-10T17:04:55.602Z,99539.91
2023-04-10T17:05:41.161Z,99542.56
2023-04-10T17:06:20.881Z,99544.22
2023-04-10T17:06:59.330Z,99542.72
2023-04-10T17:07:37.934Z,99539.75
2023-04-10T17:08:16.631Z,99540.72
2023-04-10T17:08:56.503Z,99544.38
2023-04-10T17:09:34.927Z,99540.88
2023-04-10T17:10:13.118Z,99542.56
2023-04-10T17:10:53.130Z,99536.38
2023-04-10T17:11:33.812Z,99543.69
2023-04-10T17:12:12.447Z,99537.53
2023-04-10T17:12:50.836Z,99540.88
2023-04-10T17:13:30.246Z,99542.56
2023-04-10T17:14:09.709Z,99543.53
2023-04-10T17:14:47.517Z,99545.50
2023-04-10T17:15:27.476Z,99538.50
2023-04-10T17:16:05.750Z,99529.53
2023-04-10T17:16:44.621Z,99539.19
2023-04-10T17:17:24.358Z,99536.66
2023-04-10T17:18:03.277Z,99532.19
2023-04-10T17:18:40.470Z,99525.06
2023-04-10T17:19:19.151Z,99523.22
2023-04-10T17:19:58.768Z,99522.25
2023-04-10T17:20:39.925Z,99523.94
2023-04-10T17:21:18.660Z,99520.56
2023-04-10T17:21:57.612Z,99520.41
2023-04-10T17:22:36.943Z,99519.59
2023-04-10T17:23:15.661Z,99523.22
2023-04-10T17:23:52.804Z,99524.91
2023-04-10T17:24:31.907Z,99521.28
2023-04-10T17:25:10.322Z,99513.28
2023-04-10T17:25:49.286Z,99509.78
2023-04-10T17:26:28.094Z,99519.59
2023-04-10T17:27:07.804Z,99527.56
2023-04-10T17:27:46.377Z,99523.22
2023-04-10T17:28:26.359Z,99513.28
2023-04-10T17:29:04.854Z,99509.63
2023-04-10T17:29:43.374Z,99523.06
2023-04-10T17:30:21.733Z,99516.78
2023-04-10T17:31:02.440Z,99511.59
2023-04-10T17:31:41.651Z,99505.44
2023-04-10T17:32:20.255Z,99502.78
2023-04-10T17:33:00.956Z,99510.63
2023-04-10T17:33:40.915Z,99505.44
2023-04-10T17:34:20.478Z,99514.25
2023-04-10T17:35:00.808Z,99500.13
2023-04-10T17:35:40.362Z,99495.63
2023-04-10T17:36:19.685Z,99500.81
2023-04-10T17:37:00.157Z,99495.63
2023-04-10T17:37:38.532Z,99492.97
2023-04-10T17:38:18.312Z,99493.81
2023-04-10T17:38:59.448Z,99491.28
2023-04-10T17:39:38.265Z,99499.97
2023-04-10T17:40:17.681Z,99491.13
2023-04-10T17:40:59.324Z,99492.97
2023-04-10T17:41:38.575Z,99493.94
2023-04-10T17:42:18.090Z,99488.47
2023-04-10T17:42:57.775Z,99501.94
2023-04-10T17:43:38.488Z,99485.97
2023-04-10T17:44:18.577Z,99491.28
2023-04-10T17:45:03.349Z,99490.44
2023-04-10T17:45:44.451Z,99500.97
2023-04-10T17:46:25.489Z,99486.81
2023-04-10T17:47:05.007Z,99480.63
2023-04-10T17:47:44.549Z,99484.31
2023-04-10T17:48:23.946Z,99468.47
2023-04-10T17:49:01.763Z,99477.16
2023-04-10T17:49:41.003Z,99466.66
2023-04-10T17:50:19.609Z,99477.97
2023-04-10T17:50:59.589Z,99477.97
2023-04-10T17:51:37.993Z,99470.00
2023-04-10T17:52:16.480Z,99480.63
2023-04-10T17:52:55.232Z,99485.13
2023-04-10T17:53:35.307Z,99479.94
2023-04-10T17:54:13.371Z,99465.00
2023-04-10T17:54:52.229Z,99467.34
2023-04-10T17:55:30.989Z,99447.72
2023-04-10T17:56:08.848Z,99445.06
2023-04-10T17:56:48.074Z,99469.03
2023-04-10T17:57:26.542Z,99459.34
2023-04-10T17:58:03.892Z,99463.84
2023-04-10T17:58:42.954Z,99464.00
2023-04-10T17:59:21.813Z,99453.34
2023-04-10T18:00:00.383Z,99455.03
2023-04-10T18:00:47.618Z,99445.38
2023-04-10T18:01:29.262Z,99458.53
2023-04-10T18:02:07.882Z,99463.84
2023-04-10T18:02:47.198Z,99456.00
2023-04-10T18:03:24.661Z,99448.03
2023-04-10T18:04:04.106Z,99445.22
2023-04-10T18:04:42.773Z,99450.69
2023-04-10T18:05:22.165Z,99447.88
2023-04-10T18:06:01.824Z,99453.19
2023-04-10T18:06:41.040Z,99456.84
2023-04-10T18:07:20.433Z,99465.69
2023-04-10T18:07:59.665Z,99446.03
2023-04-10T18:08:37.998Z,99454.03
2023-04-10T18:09:16.213Z,99447.72
2023-04-10T18:09:55.458Z,99454.88
2023-04-10T18:10:34.092Z,99463.00
2023-04-10T18:11:13.253Z,99454.03
2023-04-10T18:11:52.434Z,99459.50
2023-04-10T18:12:31.628Z,99491.28
2023-04-10T18:13:11.249Z,99457.00
2023-04-10T18:13:50.872Z,99447.88
2023-04-10T18:14:28.506Z,99474.50
2023-04-10T18:15:08.813Z,99480.63
2023-04-10T18:15:48.851Z,99453.19
2023-04-10T18:16:28.353Z,99467.34
2023-04-10T18:17:07.409Z,99466.66
2023-04-10T18:17:47.793Z,99474.50
2023-04-10T18:18:27.309Z,99462.00
2023-04-10T18:19:07.151Z,99462.16
2023-04-10T18:19:46.704Z,99467.47
2023-04-10T18:20:27.259Z,99461.19
2023-04-10T18:21:07.731Z,99470.00
2023-04-10T18:21:47.730Z,99457.69
2023-04-10T18:22:27.577Z,99465.69
2023-04-10T18:23:07.636Z,99462.88
2023-04-10T18:23:47.639Z,99461.88
2023-04-10T18:24:27.479Z,99470.00
2023-04-10T18:25:06.635Z,99474.34
2023-04-10T18:25:47.116Z,99467.47
2023-04-10T18:26:26.721Z,99465.00
2023-04-10T18:27:06.067Z,99477.03
2023-04-10T18:27:55.284Z,99471.13
2023-04-10T18:28:42.070Z,99463.88
2023-04-10T18:29:20.612Z,99466.13
2023-04-10T18:29:59.254Z,99472.41
2023-04-10T18:30:39.630Z,99449.47
2023-04-10T18:31:18.185Z,99488.25
2023-04-10T18:31:56.809Z,99467.09
2023-04-10T18:32:34.407Z,99471.59
2023-04-10T18:33:11.924Z,99482.09
2023-04-10T18:34:03.739Z,99475.06
2023-04-10T18:34:45.163Z,99480.94
2023-04-10T18:35:23.839Z,99484.06
2023-04-10T18:36:03.621Z,99479.72
2023-04-10T18:36:41.844Z,99485.47
2023-04-10T18:37:20.507Z,99487.84
2023-04-10T18:37:57.697Z,99480.81
2023-04-10T18:38:37.626Z,99488.53
2023-04-10T18:39:15.692Z,99489.25
2023-04-10T18:39:56.918Z,99484.59
2023-04-10T18:40:35.248Z,99485.88
2023-04-10T18:41:13.572Z,99482.38
2023-04-10T18:41:50.780Z,99489.66
2023-04-10T18:42:29.495Z,99495.25
2023-04-10T18:43:08.743Z,99490.78
2023-04-10T18:43:51.231Z,99483.19
2023-04-10T18:44:39.218Z,99482.22
2023-04-10T18:45:17.868Z,99490.19
2023-04-10T18:45:56.467Z,99478.72
2023-04-10T18:46:36.024Z,99504.19
2023-04-10T18:47:14.972Z,99505.47
2023-04-10T18:47:52.173Z,99487.81
2023-04-10T18:48:30.578Z,99493.25
2023-04-10T18:49:10.961Z,99489.38
2023-04-10T18:49:49.602Z,99485.03
2023-04-10T18:50:28.696Z,99482.91
2023-04-10T18:51:06.612Z,99485.72
2023-04-10T18:51:44.860Z,99497.50
2023-04-10T18:52:23.997Z,99473.41
2023-04-10T18:53:04.165Z,99482.22
2023-04-10T18:53:44.454Z,99482.06
2023-04-10T18:54:24.638Z,99481.25
2023-04-10T18:55:03.680Z,99466.09
2023-04-10T18:55:42.923Z,99463.31
2023-04-10T18:56:21.784Z,99464.13
2023-04-10T18:57:03.203Z,99468.78
2023-04-10T18:57:42.006Z,99467.22
2023-04-10T18:58:20.554Z,99472.41
2023-04-10T18:58:59.127Z,99463.59
2023-04-10T18:59:38.254Z,99473.41
2023-04-10T19:00:17.096Z,99469.75
2023-04-10T19:00:55.732Z,99466.09
2023-04-10T19:01:34.254Z,99465.28
2023-04-10T19:02:12.823Z,99468.91
2023-04-10T19:02:52.316Z,99471.44
2023-04-10T19:03:30.541Z,99466.94
2023-04-10T19:04:13.194Z,99473.25
2023-04-10T19:04:51.501Z,99466.94
2023-04-10T19:05:31.462Z,99461.63
2023-04-10T19:06:10.421Z,99461.63
2023-04-10T19:06:49.912Z,99463.59
2023-04-10T19:07:31.060Z,99456.44
2023-04-10T19:08:11.784Z,99451.97
2023-04-10T19:08:48.992Z,99459.97
2023-04-10T19:09:27.726Z,99457.28
2023-04-10T19:10:06.958Z,99464.28
2023-04-10T19:10:46.390Z,99461.63
2023-04-10T19:11:25.516Z,99464.28
2023-04-10T19:12:04.157Z,99469.75
2023-04-10T19:12:42.353Z,99462.47
2023-04-10T19:13:21.955Z,99452.66
2023-04-10T19:13:59.632Z,99464.13
2023-04-10T19:14:38.289Z,99452.66
2023-04-10T19:15:16.820Z,99450.00
2023-04-10T19:15:55.973Z,99457.16
2023-04-10T19:16:34.637Z,99456.28
2023-04-10T19:17:13.304Z,99450.69
2023-04-10T19:17:52.220Z,99440.19
2023-04-10T19:18:29.493Z,99455.19
2023-04-10T19:19:08.214Z,99443.38
2023-04-10T19:19:46.392Z,99445.22
2023-04-10T19:20:50.148Z,99438.38
2023-04-10T19:21:21.518Z,99452.38
2023-04-10T19:22:02.292Z,99459.50
2023-04-10T19:22:40.676Z,99457.97
2023-04-10T19:23:19.445Z,99458.81
2023-04-10T19:23:56.905Z,99455.31
2023-04-10T19:24:37.007Z,99469.44
2023-04-10T19:25:16.708Z,99461.31
2023-04-10T19:25:58.381Z,99464.81
2023-04-10T19:26:37.969Z,99456.00
2023-04-10T19:27:17.382Z,99454.34
2023-04-10T19:27:57.339Z,99460.50
2023-04-10T19:28:36.273Z,99451.69
2023-04-10T19:29:16.416Z,99444.53
2023-04-10T19:29:55.459Z,99453.50
2023-04-10T19:30:35.248Z,99445.38
2023-04-10T19:31:14.664Z,99437.22
2023-04-10T19:31:55.807Z,99444.25
2023-04-10T19:32:34.823Z,99438.06
2023-04-10T19:33:13.515Z,99446.91
2023-04-10T19:33:50.856Z,99448.72
2023-04-10T19:34:31.069Z,99452.22
2023-04-10T19:35:08.832Z,99446.75
2023-04-10T19:35:47.803Z,99450.41
2023-04-10T19:36:29.093Z,99440.72
2023-04-10T19:37:08.242Z,99441.59
2023-04-10T19:37:45.700Z,99438.38
2023-04-10T19:38:24.603Z,99454.34
2023-04-10T19:39:03.204Z,99452.66
2023-04-10T19:39:41.533Z,99453.50
2023-04-10T19:40:22.641Z,99462.16
2023-04-10T19:41:02.000Z,99456.00
2023-04-10T19:41:41.509Z,99459.50
2023-04-10T19:42:18.755Z,99457.00
2023-04-10T19:42:59.215Z,99472.25
2023-04-10T19:43:37.848Z,99463.59
2023-04-10T19:44:15.746Z,99475.06
2023-04-10T19:44:54.843Z,99473.94
2023-04-10T19:45:32.863Z,99483.75
2023-04-10T19:46:12.363Z,99472.97
2023-04-10T19:46:51.661Z,99481.94
2023-04-10T19:47:30.713Z,99481.78
2023-04-10T19:48:08.594Z,99478.97
2023-04-10T19:48:47.767Z,99474.91
2023-04-10T19:49:27.225Z,99480.25
2023-04-10T19:50:05.530Z,99479.25
2023-04-10T19:50:43.647Z,99475.78
2023-04-10T19:51:21.663Z,99473.13
2023-04-10T19:51:59.531Z,99475.63
2023-04-10T19:52:37.971Z,99473.94
2023-04-10T19:53:16.056Z,99473.81
2023-04-10T19:53:54.818Z,99464.81
2023-04-10T19:54:31.568Z,99472.81
2023-04-10T19:55:10.250Z,99473.66
2023-04-10T19:55:48.595Z,99474.63
2023-04-10T19:56:27.020Z,99475.31
2023-04-10T19:57:04.261Z,99470.00
2023-04-10T19:57:43.465Z,99474.50
2023-04-10T19:58:35.897Z,99477.97
2023-04-10T19:59:17.178Z,99475.31
2023-04-10T19:59:54.916Z,99474.63
2023-04-10T20:00:33.686Z,99474.34
2023-04-10T20:01:13.070Z,99479.81
2023-04-10T20:01:52.246Z,99477.97
2023-04-10T20:02:30.579Z,99479.66
2023-04-10T20:03:08.023Z,99492.97
2023-04-10T20:03:46.208Z,99481.50
2023-04-10T20:04:25.592Z,99477.00
2023-04-10T20:05:04.157Z,99485.13
2023-04-10T20:05:43.070Z,99493.94
2023-04-10T20:06:21.546Z,99490.31
2023-04-10T20:07:00.560Z,99496.59
2023-04-10T20:07:37.866Z,99492.97
2023-04-10T20:08:16.385Z,99495.78
2023-04-10T20:08:54.661Z,99499.25
2023-04-10T20:09:33.283Z,99496.59
2023-04-10T20:10:12.792Z,99497.59
2023-04-10T20:10:51.811Z,99498.28
2023-04-10T20:11:30.698Z,99495.78
2023-04-10T20:12:08.150Z,99503.63
2023-04-10T20:12:46.799Z,99509.78
2023-04-10T20:13:25.889Z,99494.66
2023-04-10T20:14:04.836Z,99498.28
2023-04-10T20:14:42.353Z,99495.78
2023-04-10T20:15:19.560Z,99491.13
2023-04-10T20:15:58.600Z,99500.13
2023-04-10T20:16:36.049Z,99496.59
2023-04-10T20:17:14.573Z,99507.09
2023-04-10T20:17:53.018Z,99489.47
2023-04-10T20:18:31.687Z,99498.44
2023-04-10T20:19:09.205Z,99502.78
2023-04-10T20:19:47.450Z,99501.94
2023-04-10T20:20:26.290Z,99504.59
2023-04-10T20:21:04.015Z,99501.94
2023-04-10T20:21:43.393Z,99504.59
2023-04-10T20:22:22.937Z,99497.47
2023-04-10T20:23:01.330Z,99497.47
2023-04-10T20:23:40.224Z,99490.31
2023-04-10T20:24:18.838Z,99494.66
2023-04-10T20:24:57.036Z,99491.28
2023-04-10T20:25:34.765Z,99497.47
2023-04-10T20:26:12.759Z,99496.31
2023-04-10T20:26:50.212Z,99495.63
2023-04-10T20:27:29.052Z,99491.13
2023-04-10T20:28:07.814Z,99494.66
2023-04-10T20:28:44.942Z,99489.34
2023-04-10T20:29:24.149Z,99495.63
2023-04-10T20:30:06.343Z,99488.47
2023-04-10T20:30:44.960Z,99482.31
2023-04-10T20:31:23.280Z,99487.50
2023-04-10T20:32:02.621Z,99480.50
2023-04-10T20:32:41.106Z,99482.31
2023-04-10T20:33:20.369Z,99477.00
2023-04-10T20:33:58.533Z,99480.50
2023-04-10T20:34:37.855Z,99482.31
2023-04-10T20:35:16.935Z,99485.97
2023-04-10T20:35:56.662Z,99477.97
2023-04-10T20:36:35.759Z,99487.66
2023-04-10T20:37:14.888Z,99492.81
2023-04-10T20:37:54.058Z,99494.66
2023-04-10T20:38:33.596Z,99499.97
2023-04-10T20:39:12.924Z,99508.94
2023-04-10T20:39:51.196Z,99504.44
2023-04-10T20:40:31.037Z,99509.63
2023-04-10T20:41:11.355Z,99506.97
2023-04-10T20:41:50.330Z,99513.28
2023-04-10T20:42:28.885Z,99510.63
2023-04-10T20:43:07.819Z,99508.78
2023-04-10T20:43:46.635Z,99518.47
2023-04-10T20:44:25.059Z,99516.63
2023-04-10T20:45:05.165Z,99513.28
2023-04-10T20:45:42.408Z,99517.59
2023-04-10T20:46:20.807Z,99516.78
2023-04-10T20:46:59.633Z,99514.94
2023-04-10T20:47:38.047Z,99520.28
2023-04-10T20:48:16.161Z,99515.09
2023-04-10T20:48:54.956Z,99517.59
2023-04-10T20:49:33.451Z,99521.28
2023-04-10T20:50:13.082Z,99524.63
2023-04-10T20:50:51.959Z,99523.78
2023-04-10T20:51:30.993Z,99522.25
2023-04-10T20:52:10.680Z,99522.94
2023-04-10T20:52:49.545Z,99515.94
2023-04-10T20:53:29.222Z,99525.59
2023-04-10T20:54:07.255Z,99518.63
2023-04-10T20:54:47.001Z,99515.09
2023-04-10T20:55:26.601Z,99522.94
2023-04-10T20:56:06.589Z,99517.59
2023-04-10T20:56:44.196Z,99518.47
2023-04-10T20:57:22.443Z,99525.59
2023-04-10T20:58:02.458Z,99522.94
2023-04-10T20:58:40.633Z,99526.44
2023-04-10T20:59:19.104Z,99517.75
2023-04-10T20:59:56.801Z,99514.94
2023-04-10T21:00:33.990Z,99513.28
2023-04-10T21:01:12.823Z,99522.94
2023-04-10T21:01:52.118Z,99521.13
2023-04-10T21:02:30.582Z,99512.28
2023-04-10T21:03:09.738Z,99522.94
2023-04-10T21:03:48.391Z,99517.59
2023-04-10T21:04:26.114Z,99525.59
2023-04-10T21:05:03.974Z,99517.59
2023-04-10T21:05:45.452Z,99522.09
2023-04-10T21:06:25.294Z,99523.94
2023-04-10T21:07:03.764Z,99518.63
2023-04-10T21:07:43.423Z,99508.13
2023-04-10T21:08:21.959Z,99516.78
2023-04-10T21:09:00.236Z,99512.28
2023-04-10T21:09:39.189Z,99512.28
2023-04-10T21:10:17.685Z,99505.31
2023-04-10T21:10:55.958Z,99503.34
2023-04-10T21:11:34.461Z,99506.00
2023-04-10T21:12:13.335Z,99497.19
2023-04-10T21:12:51.191Z,99497.19
2023-04-10T21:13:28.376Z,99501.63
2023-04-10T21:14:06.956Z,99502.50
2023-04-10T21:14:45.359Z,99506.97
2023-04-10T21:15:24.072Z,99506.97
2023-04-10T21:16:02.040Z,99497.31
2023-04-10T21:16:41.876Z,99499.13
2023-04-10T21:17:19.526Z,99496.47
2023-04-10T21:17:58.980Z,99495.34
2023-04-10T21:18:38.847Z,99490.16
2023-04-10T21:19:17.739Z,99490.16
2023-04-10T21:19:56.405Z,99480.50
2023-04-10T21:20:36.582Z,99481.34
2023-04-10T21:21:13.590Z,99478.69
2023-04-10T21:21:52.108Z,99480.34
2023-04-10T21:22:30.651Z,99478.69
2023-04-10T21:23:09.988Z,99479.53
2023-04-10T21:23:49.055Z,99490.16
2023-04-10T21:24:26.500Z,99483.16
2023-04-10T21:25:05.102Z,99496.47
2023-04-10T21:25:44.786Z,99482.31
2023-04-10T21:26:23.020Z,99487.66
2023-04-10T21:27:02.444Z,99484.00
2023-04-10T21:27:40.437Z,99484.16
2023-04-10T21:28:18.631Z,99476.31
2023-04-10T21:28:57.005Z,99480.63
2023-04-10T21:29:35.518Z,99479.81
2023-04-10T21:30:14.184Z,99483.31
2023-04-10T21:30:51.356Z,99478.97
2023-04-10T21:31:30.945Z,99481.63
2023-04-10T21:32:08.178Z,99486.09
2023-04-10T21:32:47.567Z,99484.31
2023-04-10T21:33:26.599Z,99488.63
2023-04-10T21:34:04.877Z,99489.34
2023-04-10T21:34:42.538Z,99490.16
2023-04-10T21:35:23.260Z,99477.00
2023-04-10T21:36:02.176Z,99482.31
2023-04-10T21:36:39.117Z,99480.63
2023-04-10T21:37:17.781Z,99492.16
2023-04-10T21:37:56.454Z,99491.13
2023-04-10T21:38:35.007Z,99492.97
2023-04-10T21:39:12.706Z,99492.16
2023-04-10T21:39:49.750Z,99490.31
2023-04-10T21:40:28.042Z,99492.97
2023-04-10T21:41:08.044Z,99489.34
2023-04-10T21:41:47.060Z,99475.19
2023-04-10T21:42:26.246Z,99488.75
2023-04-10T21:43:05.307Z,99482.31
2023-04-10T21:43:44.517Z,99479.66
2023-04-10T21:44:22.489Z,99477.97
2023-04-10T21:45:01.501Z,99481.50
2023-04-10T21:45:42.128Z,99476.19
2023-04-10T21:46:19.417Z,99479.66
2023-04-10T21:47:02.054Z,99481.50
2023-04-10T21:47:41.692Z,99485.00
2023-04-10T21:48:20.962Z,99485.00
2023-04-10T21:49:00.159Z,99475.31
2023-04-10T21:49:39.302Z,99477.97
2023-04-10T21:50:18.667Z,99483.44
2023-04-10T21:50:57.437Z,99485.13
2023-04-10T21:51:37.198Z,99479.81
2023-04-10T21:52:16.324Z,99485.97
2023-04-10T21:52:55.225Z,99478.13
2023-04-10T21:53:34.605Z,99468.34
2023-04-10T21:54:14.751Z,99465.53
2023-04-10T21:54:53.279Z,99454.19
2023-04-10T21:55:31.859Z,99442.69
2023-04-10T21:56:11.031Z,99428.72
2023-04-10T21:56:51.321Z,99435.72
2023-04-10T21:57:30.528Z,99431.38
2023-04-10T21:58:09.633Z,99435.00
2023-04-10T21:58:48.343Z,99446.66
2023-04-10T21:59:27.451Z,99435.16
2023-04-10T22:00:08.233Z,99422.72
2023-04-10T22:00:48.167Z,99423.38
2023-04-10T22:01:27.160Z,99420.88
2023-04-10T22:02:06.923Z,99427.03